Time;durP1;ratioP1;P1;durP2;ratioP2;P2;SDS_P1;SDS_P2;PMS_P1;PMS_P2;Temp;Humidity;BMP_temperature;BMP_pressure;BME280_temperature;BME280_humidity;BME280_pressure;Samples;Min_cycle;Max_cycle;Signal;HPM_P1;HPM_P2
2022/06/29 00:02:21;;;;;;;41.85;39.55;;;;;;;19.64;83.29;96639.25;5051770;28;20186;-63
2022/06/29 00:04:47;;;;;;;55.22;52.15;;;;;;;19.73;82.97;96634.84;5052978;28;20523;-64
2022/06/29 00:07:12;;;;;;;64.13;60.72;;;;;;;19.81;82.30;96625.44;5053054;28;20180;-63
2022/06/29 00:09:37;;;;;;;80.35;75.80;;;;;;;19.78;82.76;96631.34;5052987;28;20613;-63
2022/06/29 00:12:03;;;;;;;113.18;107.07;;;;;;;19.75;83.25;96621.25;5052777;28;20186;-63
2022/06/29 00:14:28;;;;;;;101.15;95.65;;;;;;;19.83;82.23;96618.75;5053053;28;20168;-63
2022/06/29 00:16:54;;;;;;;116.75;110.38;;;;;;;19.68;82.80;96618.97;5052352;28;20154;-63
2022/06/29 00:19:19;;;;;;;117.03;110.60;;;;;;;19.69;82.60;96614.44;5052551;28;20204;-63
2022/06/29 00:21:45;;;;;;;190.32;179.90;;;;;;;19.59;83.77;96609.28;5052603;28;20284;-63
2022/06/29 00:24:11;;;;;;;232.85;220.15;;;;;;;19.47;84.53;96604.38;5053229;28;20162;-63
2022/06/29 00:26:36;;;;;;;286.05;270.38;;;;;;;19.25;85.92;96607.56;5052829;28;20178;-63
2022/06/29 00:29:02;;;;;;;371.27;350.42;;;;;;;19.08;87.44;96613.38;5052715;28;20170;-63
2022/06/29 00:31:27;;;;;;;423.52;399.15;;;;;;;19.23;87.00;96601.75;5052266;28;20617;-63
2022/06/29 00:33:53;;;;;;;413.60;390.08;;;;;;;19.15;87.34;96593.63;5052349;28;20642;-63
2022/06/29 00:36:18;;;;;;;379.27;357.70;;;;;;;19.17;87.49;96589.59;5052395;28;20212;-64
2022/06/29 00:38:43;;;;;;;336.90;318.08;;;;;;;19.02;88.24;96587.94;5035504;28;20234;-63
2022/06/29 00:41:09;;;;;;;307.42;290.35;;;;;;;19.22;87.29;96588.75;5032894;28;20286;-63
2022/06/29 00:43:43;;;;;;;282.30;266.73;;;;;;;19.22;87.40;96581.59;5032527;28;20612;-63
2022/06/29 00:46:09;;;;;;;225.88;213.90;;;;;;;19.18;87.75;96588.53;5032280;28;20223;-63
2022/06/29 00:48:35;;;;;;;180.88;171.35;;;;;;;19.44;85.98;96581.81;5032304;28;20163;-64
2022/06/29 00:51:03;;;;;;;126.90;120.22;;;;;;;19.17;87.76;96571.00;5032292;28;20358;-63
2022/06/29 00:53:34;;;;;;;94.32;89.07;;;;;;;19.43;86.27;96580.22;5032153;28;20159;-63
2022/06/29 00:56:03;;;;;;;82.38;77.70;;;;;;;19.17;87.93;96570.22;5031881;28;20181;-63
2022/06/29 00:58:28;;;;;;;86.55;81.82;;;;;;;19.20;87.67;96574.97;5032274;28;20166;-64
2022/06/29 01:01:03;;;;;;;101.05;95.60;;;;;;;18.97;89.18;96576.59;5032336;28;20205;-64
2022/06/29 01:03:29;;;;;;;101.78;96.10;;;;;;;18.87;90.36;96574.06;5031574;28;20677;-64
2022/06/29 01:05:55;;;;;;;94.85;89.68;;;;;;;18.75;90.98;96578.97;5032159;28;20167;-64
2022/06/29 01:08:20;;;;;;;87.03;82.28;;;;;;;18.90;90.37;96570.81;5032172;28;20185;-63
2022/06/29 01:10:46;;;;;;;83.57;78.93;;;;;;;18.85;90.62;96571.69;5032010;28;20289;-64
2022/06/29 01:13:11;;;;;;;83.07;78.38;;;;;;;18.83;90.93;96573.84;5032142;28;20199;-64
2022/06/29 01:15:37;;;;;;;76.13;72.03;;;;;;;18.92;91.07;96581.97;5032169;28;20178;-63
2022/06/29 01:18:02;;;;;;;97.85;92.47;;;;;;;18.63;93.37;96574.84;5031472;28;20194;-64
2022/06/29 01:20:28;;;;;;;204.05;193.18;;;;;;;18.62;94.00;96577.78;5031889;28;20210;-63
2022/06/29 01:22:54;;;;;;;89.80;84.93;;;;;;;18.51;95.38;96582.38;5032457;28;20177;-64
2022/06/29 01:25:20;;;;;;;124.75;118.15;;;;;;;18.82;93.46;96571.47;5031908;28;20182;-64
2022/06/29 01:27:46;;;;;;;137.48;130.02;;;;;;;18.81;93.49;96573.31;5032061;28;20600;-64
2022/06/29 01:30:12;;;;;;;77.22;73.03;;;;;;;18.72;94.18;96571.59;5031927;28;20206;-63
2022/06/29 01:32:38;;;;;;;51.95;48.90;;;;;;;18.47;96.69;96577.91;5031910;28;20682;-64
2022/06/29 01:35:10;;;;;;;86.43;81.78;;;;;;;18.41;96.94;96584.34;5031808;28;20197;-64
2022/06/29 01:37:36;;;;;;;163.77;155.23;;;;;;;18.26;98.51;96585.31;5024743;28;20246;-63
2022/06/29 01:40:03;;;;;;;157.73;149.30;;;;;;;18.38;98.15;96590.22;5048856;28;20706;-64
2022/06/29 01:42:29;;;;;;;114.60;108.53;;;;;;;18.29;98.80;96590.84;5051841;28;20569;-63
2022/06/29 01:44:54;;;;;;;139.75;132.32;;;;;;;18.35;99.20;96588.91;5051581;28;20181;-64
2022/06/29 01:47:19;;;;;;;141.05;133.52;;;;;;;18.32;99.45;96596.66;5051887;28;20167;-64
2022/06/29 01:49:45;;;;;;;162.93;154.43;;;;;;;18.27;99.55;96595.66;5051695;28;20259;-64
2022/06/29 01:52:10;;;;;;;163.63;155.18;;;;;;;18.23;100.00;96589.28;5051738;28;20198;-64
2022/06/29 01:54:36;;;;;;;161.77;153.30;;;;;;;18.08;100.00;96586.78;5051560;28;20170;-64
2022/06/29 01:57:01;;;;;;;168.48;159.55;;;;;;;18.19;100.00;96590.13;5051301;28;20194;-63
2022/06/29 01:59:27;;;;;;;181.07;171.50;;;;;;;18.11;100.00;96585.44;5051578;28;20619;-64
2022/06/29 02:01:52;;;;;;;230.95;218.50;;;;;;;18.08;100.00;96591.31;5050105;28;20213;-64
2022/06/29 02:04:17;;;;;;;237.07;224.53;;;;;;;18.14;100.00;96584.88;5051419;28;20201;-63
2022/06/29 02:06:43;;;;;;;233.23;220.77;;;;;;;18.49;98.18;96581.09;5051704;28;20293;-63
2022/06/29 02:09:08;;;;;;;220.13;208.52;;;;;;;18.25;99.01;96583.72;5051518;28;20284;-63
2022/06/29 02:11:34;;;;;;;232.10;219.63;;;;;;;17.96;100.00;96577.59;5051358;28;20277;-63
2022/06/29 02:13:59;;;;;;;200.60;190.02;;;;;;;18.09;100.00;96576.97;5051305;28;20173;-63
2022/06/29 02:16:25;;;;;;;187.70;175.95;;;;;;;17.91;100.00;96570.50;5051764;28;20541;-63
2022/06/29 02:18:50;;;;;;;160.35;151.93;;;;;;;17.91;100.00;96559.88;5054954;28;20161;-64
2022/06/29 02:21:15;;;;;;;156.10;147.82;;;;;;;17.97;100.00;96557.97;5054852;28;20210;-64
2022/06/29 02:23:41;;;;;;;158.15;149.85;;;;;;;18.03;100.00;96564.81;5055052;28;20563;-64
2022/06/29 02:26:06;;;;;;;145.75;138.00;;;;;;;18.17;99.69;96561.22;5054964;28;20212;-63
2022/06/29 02:28:32;;;;;;;94.90;89.65;;;;;;;18.03;100.00;96557.66;5054985;28;20269;-63
2022/06/29 02:36:25;;;;;;;48.35;45.58;;;;;;;17.83;100.00;96550.66;5055005;28;20196;-63
2022/06/29 02:38:51;;;;;;;68.72;64.70;;;;;;;17.94;100.00;96550.59;5051964;28;20250;-63
2022/06/29 02:41:16;;;;;;;83.88;79.03;;;;;;;17.93;100.00;96546.34;5053305;28;20206;-63
2022/06/29 02:43:42;;;;;;;78.00;73.75;;;;;;;17.73;100.00;96534.84;5054479;28;20219;-63
2022/06/29 02:46:07;;;;;;;89.30;84.40;;;;;;;17.77;100.00;96543.84;5054599;28;20519;-63
2022/06/29 02:48:32;;;;;;;87.18;82.30;;;;;;;17.84;100.00;96546.94;5054603;28;20190;-63
2022/06/29 02:50:59;;;;;;;88.80;83.97;;;;;;;17.88;100.00;96541.88;5054652;28;20689;-63
2022/06/29 02:53:25;;;;;;;83.60;79.03;;;;;;;17.79;100.00;96532.94;5054218;28;20637;-64
2022/06/29 02:55:50;;;;;;;82.37;77.90;;;;;;;17.76;100.00;96536.94;5053538;28;20193;-64
2022/06/29 02:58:16;;;;;;;83.63;79.05;;;;;;;17.84;100.00;96546.94;5054537;28;20626;-64
2022/06/29 03:00:41;;;;;;;104.60;99.00;;;;;;;17.86;100.00;96547.47;5054190;28;20198;-64
2022/06/29 03:03:06;;;;;;;105.50;99.72;;;;;;;17.80;100.00;96553.88;5054226;28;20193;-64
2022/06/29 03:05:32;;;;;;;101.63;96.07;;;;;;;17.86;100.00;96547.47;5054086;28;20170;-64
2022/06/29 03:07:57;;;;;;;123.03;116.47;;;;;;;17.96;100.00;96551.09;5054175;28;20193;-63
2022/06/29 03:10:22;;;;;;;139.37;131.77;;;;;;;17.86;100.00;96552.75;5053821;28;20557;-64
2022/06/29 03:12:48;;;;;;;149.73;141.87;;;;;;;17.84;100.00;96551.44;5053838;28;20177;-64
2022/06/29 03:15:13;;;;;;;162.83;154.07;;;;;;;17.75;100.00;96548.63;5053762;28;20162;-63
2022/06/29 03:17:39;;;;;;;169.90;160.70;;;;;;;17.83;100.00;96547.25;5053457;28;20213;-63
2022/06/29 03:20:05;;;;;;;187.23;177.40;;;;;;;17.86;100.00;96534.22;5053783;28;20180;-64
2022/06/29 03:22:32;;;;;;;184.13;174.57;;;;;;;17.77;100.00;96527.13;5053957;28;20213;-64
2022/06/29 03:24:58;;;;;;;192.23;182.10;;;;;;;17.78;100.00;96534.78;5052257;28;20166;-64
2022/06/29 03:27:23;;;;;;;192.20;182.17;;;;;;;17.81;100.00;96534.25;5053202;28;20189;-64
2022/06/29 03:29:48;;;;;;;191.82;181.10;;;;;;;17.78;100.00;96532.13;5053623;28;20182;-63
2022/06/29 03:32:14;;;;;;;175.83;166.43;;;;;;;17.84;100.00;96536.34;5053696;28;20178;-64
2022/06/29 03:34:39;;;;;;;177.53;167.93;;;;;;;17.82;100.00;96533.19;5053751;28;20174;-64
2022/06/29 03:37:05;;;;;;;187.10;177.13;;;;;;;17.99;100.00;96535.44;5052986;28;20643;-64
2022/06/29 03:39:30;;;;;;;186.70;176.97;;;;;;;18.08;100.00;96530.28;5051173;28;20221;-64
2022/06/29 03:41:56;;;;;;;174.80;165.53;;;;;;;18.04;100.00;96531.94;5053450;28;20217;-64
2022/06/29 03:44:21;;;;;;;161.87;153.17;;;;;;;18.02;100.00;96532.19;5053415;28;20607;-64
2022/06/29 03:46:46;;;;;;;154.00;145.63;;;;;;;17.94;100.00;96529.38;5053440;28;20166;-64
2022/06/29 03:49:12;;;;;;;142.83;135.10;;;;;;;17.75;100.00;96527.41;5053589;28;20252;-64
2022/06/29 03:51:37;;;;;;;201.13;190.60;;;;;;;17.60;100.00;96526.75;5053254;28;20197;-64
2022/06/29 03:54:02;;;;;;;213.73;202.40;;;;;;;17.74;100.00;96531.13;5053367;28;20245;-64
2022/06/29 03:56:28;;;;;;;196.07;185.70;;;;;;;17.92;100.00;96528.84;5052464;28;20630;-63
2022/06/29 03:58:53;;;;;;;177.70;168.23;;;;;;;17.72;100.00;96529.84;5053208;28;20193;-64
2022/06/29 04:01:19;;;;;;;176.15;166.63;;;;;;;17.67;100.00;96532.50;5053102;28;20205;-64
2022/06/29 04:03:44;;;;;;;214.73;203.37;;;;;;;17.53;100.00;96529.69;5053123;28;20180;-64
2022/06/29 04:06:10;;;;;;;245.10;232.10;;;;;;;17.50;100.00;96537.41;5053021;28;20162;-64
2022/06/29 04:08:37;;;;;;;197.33;187.10;;;;;;;17.57;100.00;96528.03;5052818;28;20204;-64
2022/06/29 04:11:03;;;;;;;210.73;199.38;;;;;;;17.82;100.00;96533.19;5052869;28;20181;-64
2022/06/29 04:13:28;;;;;;;241.17;227.83;;;;;;;17.95;100.00;96533.59;5052844;28;20533;-64
2022/06/29 04:15:54;;;;;;;132.65;125.40;;;;;;;18.53;98.98;96540.44;5050834;28;20182;-64
2022/06/29 04:18:19;;;;;;;89.90;85.00;;;;;;;18.67;97.71;96538.69;5052886;28;20208;-64
2022/06/29 04:23:28;;;;;;;133.50;126.20;;;;;;;18.43;98.90;96542.41;5052486;28;20208;-64
2022/06/29 04:25:54;;;;;;;105.32;99.78;;;;;;;18.73;96.97;96535.97;5052615;28;20193;-64
2022/06/29 04:28:19;;;;;;;149.48;141.65;;;;;;;18.74;96.48;96534.91;5052553;28;20250;-64
2022/06/29 04:30:45;;;;;;;199.32;188.90;;;;;;;19.55;91.62;96539.16;5052459;28;20272;-64
2022/06/29 04:33:10;;;;;;;132.32;124.90;;;;;;;19.88;89.28;96527.44;5052491;28;20512;-64
2022/06/29 04:35:42;;;;;;;117.28;110.90;;;;;;;19.72;89.65;96534.09;5052532;28;20293;-63
2022/06/29 04:38:07;;;;;;;143.00;135.65;;;;;;;20.05;87.10;96522.34;5034870;28;20312;-64
2022/06/29 04:40:33;;;;;;;142.13;134.57;;;;;;;19.89;87.90;96534.34;5051843;28;20240;-64
2022/06/29 04:42:58;;;;;;;140.75;133.02;;;;;;;19.67;88.46;96531.53;5052379;28;20229;-63
2022/06/29 04:48:08;;;;;;;179.77;170.57;;;;;;;20.21;86.80;96534.31;5052262;28;20281;-63
2022/06/29 04:50:33;;;;;;;127.22;120.53;;;;;;;20.35;84.50;96534.34;5052337;28;20261;-63
2022/06/29 04:52:58;;;;;;;89.00;84.28;;;;;;;19.81;86.97;96538.44;5052379;28;20219;-63
2022/06/29 04:55:26;;;;;;;78.72;74.30;;;;;;;19.94;86.72;96531.59;5050618;28;20170;-63
2022/06/29 04:57:51;;;;;;;125.45;118.95;;;;;;;19.90;86.46;96533.22;5052363;28;20257;-63
2022/06/29 05:00:17;;;;;;;74.10;69.13;;;;;;;19.51;88.40;96529.06;5052260;28;20268;-63
2022/06/29 05:02:42;;;;;;;132.05;124.78;;;;;;;19.38;89.57;96529.78;5051846;28;20670;-63
2022/06/29 05:05:08;;;;;;;131.07;124.10;;;;;;;19.26;90.47;96541.94;5051885;28;20162;-61
2022/06/29 05:07:34;;;;;;;122.10;115.57;;;;;;;19.09;91.42;96539.78;5051966;28;20162;-63
2022/06/29 05:09:59;;;;;;;157.50;149.13;;;;;;;18.87;93.16;96542.19;5051926;28;20257;-63
2022/06/29 05:12:25;;;;;;;103.32;97.53;;;;;;;19.37;90.72;96546.81;5051859;28;20154;-63
2022/06/29 05:14:50;;;;;;;98.32;92.75;;;;;;;19.31;90.46;96545.31;5051679;28;20213;-63
2022/06/29 05:17:16;;;;;;;155.30;146.18;;;;;;;19.21;91.56;96549.97;5052044;28;20168;-63
2022/06/29 05:19:41;;;;;;;436.27;411.15;;;;;;;19.25;91.01;96545.66;5051864;28;20250;-63
2022/06/29 05:22:06;;;;;;;413.25;390.08;;;;;;;18.96;93.01;96549.22;5051805;28;20202;-63
2022/06/29 05:24:32;;;;;;;286.25;270.15;;;;;;;19.09;92.70;96545.88;5052254;28;20528;-63
2022/06/29 05:26:58;;;;;;;229.07;216.65;;;;;;;18.83;94.03;96541.19;5051662;28;20261;-63
2022/06/29 05:29:25;;;;;;;160.45;151.82;;;;;;;19.09;91.91;96540.56;5051460;28;20656;-63
2022/06/29 05:31:52;;;;;;;121.03;114.28;;;;;;;19.21;91.52;96540.13;5051719;28;20193;-63
2022/06/29 05:34:17;;;;;;;79.97;75.45;;;;;;;19.33;91.22;96534.41;5051787;28;20178;-63
2022/06/29 05:36:43;;;;;;;61.40;57.80;;;;;;;19.55;89.89;96542.59;5051380;28;20185;-63
2022/06/29 05:39:08;;;;;;;56.13;52.78;;;;;;;19.45;90.80;96546.19;5048723;28;20594;-64
2022/06/29 05:41:33;;;;;;;63.05;59.47;;;;;;;19.05;93.03;96554.72;5051752;28;20740;-63
2022/06/29 05:43:59;;;;;;;56.55;53.30;;;;;;;19.24;92.10;96555.50;5051717;28;20190;-61
2022/06/29 05:46:24;;;;;;;64.07;60.50;;;;;;;19.19;91.58;96544.16;5051634;28;20629;-62
2022/06/29 05:48:50;;;;;;;66.75;63.05;;;;;;;18.79;94.71;96548.13;5051718;28;20167;-62
2022/06/29 05:51:15;;;;;;;67.32;63.42;;;;;;;18.75;95.51;96555.06;5054482;28;20707;-62
2022/06/29 05:53:41;;;;;;;59.70;56.10;;;;;;;19.10;93.62;96546.66;5055710;28;20515;-62
2022/06/29 05:56:06;;;;;;;58.97;55.47;;;;;;;19.17;92.91;96549.75;5054862;28;20230;-62
2022/06/29 05:58:32;;;;;;;69.32;65.35;;;;;;;19.56;91.07;96546.81;5055625;28;20669;-63
2022/06/29 06:00:57;;;;;;;63.45;59.70;;;;;;;19.61;90.74;96543.31;5055427;28;20570;-62
2022/06/29 06:03:23;;;;;;;58.63;55.15;;;;;;;19.39;92.07;96541.97;5055340;28;20165;-63
2022/06/29 06:05:48;;;;;;;66.25;62.45;;;;;;;19.09;93.82;96550.41;5055568;28;20158;-62
2022/06/29 06:08:15;;;;;;;56.78;53.10;;;;;;;19.06;94.33;96538.47;5055315;28;20193;-62
2022/06/29 06:10:41;;;;;;;57.15;53.53;;;;;;;18.79;95.73;96554.22;5055280;28;20198;-62
2022/06/29 06:13:07;;;;;;;59.67;56.22;;;;;;;18.87;95.79;96544.84;5055318;28;20277;-63
2022/06/29 06:15:34;;;;;;;78.13;73.53;;;;;;;18.93;95.16;96552.47;5054559;28;20268;-63
2022/06/29 06:18:01;;;;;;;63.70;60.03;;;;;;;19.58;91.13;96546.53;5055116;28;20655;-63
2022/06/29 06:20:26;;;;;;;48.30;45.33;;;;;;;19.61;90.87;96548.63;5054996;28;20221;-63
2022/06/29 06:22:52;;;;;;;61.45;57.97;;;;;;;19.02;94.70;96547.28;5054994;28;20232;-63
2022/06/29 06:25:17;;;;;;;68.70;64.65;;;;;;;19.58;91.42;96549.19;5054673;28;20181;-63
2022/06/29 06:27:42;;;;;;;92.65;87.53;;;;;;;19.49;90.70;96541.88;5054688;28;20607;-63
2022/06/29 06:30:08;;;;;;;167.60;158.32;;;;;;;19.20;93.38;96545.72;5054736;28;20178;-64
2022/06/29 06:32:34;;;;;;;292.75;275.95;;;;;;;19.35;92.76;96532.22;5054808;28;20181;-64
2022/06/29 06:34:59;;;;;;;365.50;344.80;;;;;;;19.95;89.61;96533.16;5054643;28;20220;-62
2022/06/29 06:37:24;;;;;;;158.27;149.38;;;;;;;20.66;85.61;96539.88;5054058;28;20193;-64
2022/06/29 06:42:34;;;;;;;147.00;139.15;;;;;;;20.99;82.59;96537.88;5054751;28;20209;-64
2022/06/29 06:44:59;;;;;;;123.93;117.07;;;;;;;20.99;82.75;96543.19;5054634;28;20158;-65
2022/06/29 06:47:24;;;;;;;138.70;131.20;;;;;;;21.13;82.71;96538.63;5054727;28;20174;-64
2022/06/29 06:49:50;;;;;;;165.05;156.20;;;;;;;21.93;79.53;96540.53;5054585;28;20166;-64
2022/06/29 06:52:17;;;;;;;93.43;88.13;;;;;;;22.58;75.83;96548.72;5054661;28;20155;-64
2022/06/29 06:54:44;;;;;;;78.07;73.70;;;;;;;22.96;74.09;96546.34;5054254;28;20226;-65
2022/06/29 06:57:11;;;;;;;136.63;129.10;;;;;;;23.19;72.06;96547.81;5054526;28;20245;-65
2022/06/29 06:59:37;;;;;;;156.23;147.52;;;;;;;23.50;70.73;96550.41;5054529;28;20175;-65
2022/06/29 07:02:03;;;;;;;160.85;152.32;;;;;;;23.77;68.82;96553.84;5053750;28;20259;-65
2022/06/29 07:04:28;;;;;;;160.55;151.98;;;;;;;23.97;68.41;96548.63;5054384;28;20591;-65
2022/06/29 07:06:54;;;;;;;161.45;152.93;;;;;;;23.90;67.93;96551.00;5054379;28;20253;-65
2022/06/29 07:09:19;;;;;;;141.52;133.82;;;;;;;24.07;67.40;96555.53;5054134;28;20193;-65
2022/06/29 07:11:44;;;;;;;140.85;133.43;;;;;;;24.23;67.19;96555.84;5054260;28;20190;-65
2022/06/29 07:14:10;;;;;;;146.43;138.60;;;;;;;24.54;65.83;96552.91;5053688;28;20610;-64
2022/06/29 07:16:35;;;;;;;235.88;223.45;;;;;;;24.48;65.37;96548.81;5053991;28;20307;-65
2022/06/29 07:19:00;;;;;;;214.15;202.80;;;;;;;24.51;64.52;96550.88;5053991;28;20174;-65
2022/06/29 07:21:27;;;;;;;190.57;180.32;;;;;;;24.65;63.98;96546.06;5053843;28;20209;-65
2022/06/29 07:23:52;;;;;;;187.82;177.68;;;;;;;24.81;63.64;96547.88;5054120;28;20170;-65
2022/06/29 07:26:18;;;;;;;179.65;170.10;;;;;;;24.84;61.96;96551.81;5053810;28;20657;-65
2022/06/29 07:28:43;;;;;;;176.00;166.55;;;;;;;25.17;62.24;96551.97;5052257;28;20714;-65
2022/06/29 07:31:09;;;;;;;165.32;156.23;;;;;;;24.83;63.80;96552.94;5053646;28;20202;-65
2022/06/29 07:33:34;;;;;;;162.52;153.57;;;;;;;24.59;64.62;96544.66;5053910;28;20513;-63
2022/06/29 07:36:00;;;;;;;194.57;184.10;;;;;;;24.68;63.18;96548.13;5053195;28;20202;-63
2022/06/29 07:38:25;;;;;;;179.88;170.40;;;;;;;24.91;62.72;96557.47;5045137;28;20304;-63
2022/06/29 07:40:50;;;;;;;174.98;165.77;;;;;;;24.85;63.62;96551.47;5033501;28;20254;-63
2022/06/29 07:43:16;;;;;;;150.88;142.57;;;;;;;24.11;67.75;96550.31;5033458;28;20646;-62
2022/06/29 07:45:42;;;;;;;154.52;146.20;;;;;;;24.04;69.41;96551.59;5033494;28;20233;-63
2022/06/29 07:48:08;;;;;;;144.23;136.35;;;;;;;23.09;72.38;96550.78;5033941;28;20170;-63
2022/06/29 07:50:34;;;;;;;239.05;226.32;;;;;;;23.60;70.67;96541.25;5033657;28;20195;-63
2022/06/29 07:53:00;;;;;;;454.25;428.80;;;;;;;23.78;71.16;96547.41;5033450;28;20167;-63
2022/06/29 07:55:25;;;;;;;220.57;208.65;;;;;;;23.36;70.71;96555.06;5032963;28;20685;-63
2022/06/29 07:57:51;;;;;;;399.85;378.05;;;;;;;23.23;73.03;96557.91;5033246;28;20254;-64
2022/06/29 08:00:16;;;;;;;268.70;254.15;;;;;;;23.25;72.88;96553.00;5033228;28;20198;-63
2022/06/29 08:02:42;;;;;;;227.20;215.20;;;;;;;23.08;73.89;96551.09;5033294;28;20183;-64
2022/06/29 08:05:08;;;;;;;228.48;216.35;;;;;;;23.83;70.79;96555.25;5033258;28;20639;-64
2022/06/29 08:07:34;;;;;;;244.30;231.30;;;;;;;23.77;70.15;96560.00;5033037;28;20174;-64
2022/06/29 08:10:00;;;;;;;276.50;261.30;;;;;;;24.08;68.96;96548.28;5033214;28;20179;-64
2022/06/29 08:12:26;;;;;;;116.88;110.53;;;;;;;23.68;68.45;96553.88;5033174;28;20221;-64
2022/06/29 08:14:51;;;;;;;176.88;167.55;;;;;;;23.97;65.81;96551.28;5031231;28;20182;-64
2022/06/29 08:17:16;;;;;;;203.55;192.50;;;;;;;24.75;63.13;96551.06;5033458;28;20280;-64
2022/06/29 08:19:42;;;;;;;166.77;157.98;;;;;;;24.69;62.25;96549.66;5033155;28;20182;-64
2022/06/29 08:22:07;;;;;;;175.35;166.07;;;;;;;23.79;65.12;96560.47;5031495;28;20617;-65
2022/06/29 08:24:33;;;;;;;149.13;140.95;;;;;;;23.82;66.47;96538.41;5032847;28;20154;-64
2022/06/29 08:26:59;;;;;;;163.95;154.75;;;;;;;23.91;65.97;96544.53;5032705;28;20174;-65
2022/06/29 08:29:24;;;;;;;182.57;172.40;;;;;;;23.82;66.90;96548.31;5032632;28;20179;-63
2022/06/29 08:31:50;;;;;;;174.35;165.07;;;;;;;23.01;67.74;96540.09;5032766;28;20529;-65
2022/06/29 08:34:27;;;;;;;175.65;166.18;;;;;;;22.85;70.20;96552.31;5032811;28;20225;-64
2022/06/29 08:36:53;;;;;;;205.98;194.95;;;;;;;23.34;66.64;96540.44;5030795;28;20178;-64
2022/06/29 08:39:18;;;;;;;208.23;196.85;;;;;;;23.53;65.86;96544.41;5044354;28;20574;-64
2022/06/29 08:41:44;;;;;;;224.93;212.55;;;;;;;24.38;63.27;96536.56;5052406;28;20251;-64
2022/06/29 08:44:10;;;;;;;232.93;220.35;;;;;;;25.07;61.89;96533.56;5052789;28;20504;-64
2022/06/29 08:46:36;;;;;;;172.18;163.20;;;;;;;24.38;63.11;96531.22;5052908;28;20220;-64
2022/06/29 08:49:03;;;;;;;164.77;155.88;;;;;;;24.70;63.27;96540.53;5052490;28;20154;-64
2022/06/29 08:51:33;;;;;;;200.52;189.75;;;;;;;25.26;61.20;96540.06;5052618;28;20194;-65
2022/06/29 08:54:00;;;;;;;158.30;149.60;;;;;;;25.07;61.37;96547.78;5052512;28;20175;-65
2022/06/29 08:56:26;;;;;;;92.15;87.18;;;;;;;25.40;60.04;96544.41;5051857;28;20162;-64
2022/06/29 08:58:51;;;;;;;95.68;90.60;;;;;;;25.08;61.59;96546.66;5052426;28;20245;-64
2022/06/29 09:01:17;;;;;;;82.97;78.57;;;;;;;25.55;60.06;96538.44;5052428;28;20335;-62
2022/06/29 09:03:43;;;;;;;88.15;83.28;;;;;;;25.24;60.68;96538.84;5052256;28;20171;-64
2022/06/29 09:06:08;;;;;;;93.93;88.80;;;;;;;25.39;60.82;96521.34;5052197;28;20157;-64
2022/06/29 09:08:34;;;;;;;98.53;92.97;;;;;;;25.70;59.92;96529.78;5052106;28;20185;-64
2022/06/29 09:11:28;;;;;;;98.38;92.97;;;;;;;25.99;59.51;96526.19;5051776;28;20740;-64
2022/06/29 09:14:16;;;;;;;167.35;158.82;;;;;;;25.59;59.05;96529.41;5043945;28;20213;-65
2022/06/29 09:16:59;;;;;;;168.40;159.63;;;;;;;24.72;62.78;96535.63;5052147;28;20653;-64
2022/06/29 09:19:41;;;;;;;126.03;119.30;;;;;;;24.86;62.86;96528.13;5052105;28;20274;-64
2022/06/29 09:22:06;;;;;;;97.82;92.40;;;;;;;25.23;61.48;96531.88;5052192;28;20296;-64
2022/06/29 09:24:33;;;;;;;131.85;124.88;;;;;;;25.47;60.41;96532.00;5052091;28;20249;-64
2022/06/29 09:27:02;;;;;;;134.65;127.45;;;;;;;24.53;63.01;96527.97;5056010;28;20657;-64
2022/06/29 09:29:33;;;;;;;108.85;103.13;;;;;;;24.41;63.64;96530.56;5055973;28;20201;-64
2022/06/29 09:32:01;;;;;;;102.50;96.88;;;;;;;25.44;60.72;96529.19;5054707;28;20259;-65
2022/06/29 09:34:34;;;;;;;111.97;106.03;;;;;;;24.75;62.62;96527.72;5056201;28;20174;-64
2022/06/29 09:37:02;;;;;;;127.68;120.88;;;;;;;24.90;61.91;96522.94;5039298;28;20226;-64
2022/06/29 09:39:38;;;;;;;126.03;119.30;;;;;;;25.32;61.71;96526.44;5048665;28;20225;-64
2022/06/29 09:42:14;;;;;;;199.82;189.05;;;;;;;25.45;59.38;96528.09;5055761;28;20228;-64
2022/06/29 09:44:41;;;;;;;182.68;173.30;;;;;;;25.07;60.43;96537.06;5056334;28;20248;-64
2022/06/29 09:47:14;;;;;;;170.85;161.57;;;;;;;24.57;62.09;96538.88;5056268;28;20170;-64
2022/06/29 09:49:40;;;;;;;258.98;244.88;;;;;;;25.04;61.49;96536.91;5055768;28;20164;-64
2022/06/29 09:52:07;;;;;;;242.07;229.05;;;;;;;24.84;61.79;96533.06;5055984;28;20194;-64
2022/06/29 09:54:44;;;;;;;253.02;239.27;;;;;;;24.49;62.99;96537.00;5055514;28;20219;-64
2022/06/29 09:57:12;;;;;;;212.60;200.95;;;;;;;25.16;60.64;96534.28;5055800;28;20574;-64
2022/06/29 10:02:45;;;;;;;224.77;213.00;;;;;;;24.53;61.57;96529.88;5055580;28;20251;-64
2022/06/29 10:05:21;;;;;;;231.77;219.27;;;;;;;24.46;62.96;96527.72;5055797;28;20568;-64
2022/06/29 10:07:49;;;;;;;249.25;235.80;;;;;;;25.09;61.57;96529.44;5055577;28;20198;-65
2022/06/29 10:10:17;;;;;;;266.10;251.90;;;;;;;25.48;59.92;96530.91;5055245;28;20202;-65
2022/06/29 10:16:02;;;;;;;247.75;234.60;;;;;;;25.00;61.06;96533.31;5055325;28;20196;-64
2022/06/29 10:18:47;;;;;;;177.05;167.75;;;;;;;24.75;60.95;96525.03;5055544;28;20618;-65
2022/06/29 10:21:22;;;;;;;223.82;211.95;;;;;;;25.40;60.19;96525.59;5055736;28;20669;-64
2022/06/29 10:23:47;;;;;;;212.82;201.75;;;;;;;25.84;58.63;96524.16;5056042;28;20164;-65
2022/06/29 10:26:28;;;;;;;193.48;183.13;;;;;;;25.56;58.47;96527.41;5055785;28;20272;-64
2022/06/29 10:29:13;;;;;;;199.88;189.60;;;;;;;26.02;57.90;96528.22;5055267;28;20178;-64
2022/06/29 10:31:54;;;;;;;202.80;192.35;;;;;;;25.87;58.40;96531.53;5054871;28;20288;-64
2022/06/29 10:35:05;;;;;;;253.70;240.10;;;;;;;25.78;58.00;96530.84;5055165;28;20185;-64
2022/06/29 10:37:25;;;;;;;266.73;252.30;;;;;;;25.87;57.67;96526.16;5033558;28;20673;-64
2022/06/29 10:39:53;;;;;;;248.85;235.38;;;;;;;25.40;59.30;96528.28;5033005;28;20325;-65
2022/06/29 10:45:19;;;;;;;328.23;310.33;;;;;;;25.72;59.65;96530.25;5034953;28;20193;-64
2022/06/29 10:47:57;;;;;;;284.35;269.15;;;;;;;25.79;58.83;96527.81;5034805;28;20177;-64
2022/06/29 10:50:23;;;;;;;230.50;218.50;;;;;;;25.61;59.07;96531.78;5034769;28;20190;-64
2022/06/29 10:52:54;;;;;;;236.55;223.85;;;;;;;26.02;57.83;96526.34;5035151;28;20166;-64
2022/06/29 10:55:20;;;;;;;267.92;253.70;;;;;;;26.36;57.13;96527.09;5034285;28;20194;-63
2022/06/29 10:57:46;;;;;;;153.88;145.55;;;;;;;27.08;54.96;96528.25;5034708;28;20663;-66
2022/06/29 11:00:28;;;;;;;101.68;96.20;;;;;;;27.04;54.53;96524.63;5033591;28;20289;-63
2022/06/29 11:02:53;;;;;;;109.82;104.07;;;;;;;26.73;54.85;96519.84;5034691;28;20190;-63
2022/06/29 11:05:19;;;;;;;131.57;124.97;;;;;;;27.02;54.11;96526.91;5033939;28;20166;-63
2022/06/29 11:13:30;;;;;;;107.68;102.13;;;;;;;27.52;52.58;96527.28;5034148;28;20276;-64
2022/06/29 11:15:58;;;;;;;87.95;83.28;;;;;;;28.08;52.07;96517.25;5034241;28;20173;-64
2022/06/29 11:18:31;;;;;;;208.27;197.45;;;;;;;28.45;50.99;96512.44;5034228;28;20186;-65
2022/06/29 11:21:04;;;;;;;378.23;358.17;;;;;;;27.26;54.04;96521.47;5033833;28;20272;-64
2022/06/29 11:23:34;;;;;;;387.80;367.13;;;;;;;27.08;53.82;96517.47;5034202;28;20532;-63
2022/06/29 11:26:01;;;;;;;300.63;284.92;;;;;;;26.84;54.44;96518.25;5033755;28;20235;-63
2022/06/29 11:28:28;;;;;;;280.65;266.02;;;;;;;26.90;53.56;96511.56;5033857;28;20586;-64
2022/06/29 11:31:12;;;;;;;244.25;231.70;;;;;;;27.86;51.72;96507.03;5033552;28;20225;-63
2022/06/29 11:33:44;;;;;;;249.52;236.55;;;;;;;28.22;49.78;96506.06;5033419;28;20178;-64